Time;durP1;ratioP1;P1;durP2;ratioP2;P2;SDS_P1;SDS_P2;PMS_P1;PMS_P2;Temp;Humidity;BMP_temperature;BMP_pressure;BME280_temperature;BME280_humidity;BME280_pressure;Samples;Min_cycle;Max_cycle;Signal;HPM_P1;HPM_P2
2021/08/09 00:02:09;;;;;;;0.60;0.47;;;16.00;99.90;;;;;;5074120;28;20447;-82
2021/08/09 00:04:38;;;;;;;0.50;0.30;;;16.00;99.90;;;;;;5074073;28;20810;-83
2021/08/09 00:07:05;;;;;;;0.50;0.30;;;16.00;99.90;;;;;;5073669;28;20451;-83
2021/08/09 00:09:33;;;;;;;0.50;0.40;;;16.00;99.90;;;;;;5073639;28;20483;-83
2021/08/09 00:12:01;;;;;;;0.50;0.30;;;16.00;99.90;;;;;;5074104;28;20447;-82
2021/08/09 00:14:28;;;;;;;0.60;0.53;;;16.00;99.90;;;;;;5073281;28;20448;-85
2021/08/09 00:16:55;;;;;;;1.30;1.07;;;16.00;99.90;;;;;;5073957;28;20449;-82
2021/08/09 00:19:22;;;;;;;0.50;0.33;;;16.00;99.90;;;;;;5073712;28;20982;-84
2021/08/09 00:21:48;;;;;;;0.50;0.40;;;16.00;99.90;;;;;;5073685;28;20443;-83
2021/08/09 00:24:15;;;;;;;0.50;0.33;;;15.90;99.90;;;;;;5073655;28;20445;-83
2021/08/09 00:26:43;;;;;;;0.50;0.40;;;15.90;99.90;;;;;;5074042;28;20455;-82
2021/08/09 00:29:10;;;;;;;0.50;0.30;;;15.80;99.90;;;;;;5073917;28;20484;-83
2021/08/09 00:31:37;;;;;;;0.60;0.50;;;15.70;99.90;;;;;;5073484;28;20441;-83
2021/08/09 00:34:04;;;;;;;0.50;0.37;;;15.70;99.90;;;;;;5073980;28;20433;-82
2021/08/09 00:36:31;;;;;;;0.70;0.70;;;15.60;99.90;;;;;;5074107;28;20665;-83
2021/08/09 00:38:57;;;;;;;1.00;0.67;;;15.50;99.90;;;;;;5073281;28;20449;-80
2021/08/09 00:41:24;;;;;;;0.50;0.30;;;15.50;99.90;;;;;;5074006;28;20451;-83
2021/08/09 00:43:52;;;;;;;0.50;0.40;;;15.50;99.90;;;;;;5073463;28;20821;-81
2021/08/09 00:46:21;;;;;;;0.50;0.40;;;15.40;99.90;;;;;;5076885;28;20439;-83
2021/08/09 00:48:48;;;;;;;0.50;0.30;;;15.40;99.90;;;;;;5077716;28;20480;-84
2021/08/09 00:51:15;;;;;;;0.60;0.60;;;15.30;99.90;;;;;;5076755;28;20944;-81
2021/08/09 00:53:42;;;;;;;0.50;0.50;;;15.30;99.90;;;;;;5077205;28;20435;-83
2021/08/09 00:56:08;;;;;;;0.50;0.30;;;15.30;99.90;;;;;;5077020;28;20437;-84
2021/08/09 00:58:36;;;;;;;0.50;0.40;;;15.20;99.90;;;;;;5077420;28;20440;-83
2021/08/09 01:01:04;;;;;;;0.50;0.40;;;15.20;99.90;;;;;;5076469;28;20455;-83
2021/08/09 01:03:30;;;;;;;0.50;0.40;;;15.10;99.90;;;;;;5077801;28;20444;-79
2021/08/09 01:05:57;;;;;;;0.50;0.40;;;15.10;99.90;;;;;;5077257;28;20433;-83
2021/08/09 01:11:13;;;;;;;0.60;0.50;;;15.00;99.90;;;;;;5034518;28;20458;-85
2021/08/09 01:13:51;;;;;;;0.50;0.30;;;14.90;99.90;;;;;;5038220;28;20447;-85
2021/08/09 01:16:26;;;;;;;0.50;0.30;;;14.90;99.90;;;;;;5022982;28;20438;-85
2021/08/09 01:18:58;;;;;;;0.50;0.40;;;14.90;99.90;;;;;;5034849;28;20464;-86
2021/08/09 01:21:27;;;;;;;0.50;0.40;;;14.80;99.90;;;;;;5041050;28;20442;-85
2021/08/09 01:23:59;;;;;;;0.50;0.37;;;14.80;99.90;;;;;;5041606;28;20427;-85
2021/08/09 01:26:35;;;;;;;0.50;0.40;;;14.70;99.90;;;;;;5041293;28;20429;-86
2021/08/09 01:29:06;;;;;;;0.50;0.40;;;14.70;99.90;;;;;;5041278;28;20686;-85
2021/08/09 01:31:39;;;;;;;0.50;0.40;;;14.60;99.90;;;;;;5040780;28;20438;-85
2021/08/09 01:34:08;;;;;;;0.50;0.40;;;14.60;99.90;;;;;;5041104;28;20458;-85
2021/08/09 01:36:36;;;;;;;0.50;0.40;;;14.60;99.90;;;;;;5053616;28;20445;-83
2021/08/09 01:39:04;;;;;;;4.33;2.63;;;14.60;99.90;;;;;;5046074;28;20461;-85
2021/08/09 01:41:32;;;;;;;0.50;0.40;;;14.60;99.90;;;;;;5041529;28;20434;-84
2021/08/09 01:43:59;;;;;;;0.50;0.40;;;14.50;99.90;;;;;;5040918;28;20447;-85
2021/08/09 01:46:27;;;;;;;0.60;0.50;;;14.50;99.90;;;;;;5040643;28;20446;-82
2021/08/09 01:48:56;;;;;;;0.50;0.40;;;14.40;99.90;;;;;;5041265;28;20489;-85
2021/08/09 01:51:23;;;;;;;0.50;0.40;;;14.40;99.90;;;;;;5040563;28;20440;-86
2021/08/09 01:53:52;;;;;;;0.50;0.40;;;14.40;99.90;;;;;;5041031;28;20446;-84
2021/08/09 01:56:19;;;;;;;0.50;0.30;;;14.40;99.90;;;;;;5040857;28;20939;-85
2021/08/09 01:58:46;;;;;;;0.50;0.40;;;14.40;99.90;;;;;;5041587;28;20509;-86
2021/08/09 02:01:13;;;;;;;0.50;0.40;;;14.40;99.90;;;;;;5040573;28;20669;-85
2021/08/09 02:03:41;;;;;;;0.50;0.40;;;14.40;99.90;;;;;;5041049;28;20198;-82
2021/08/09 02:06:08;;;;;;;0.50;0.30;;;14.40;99.90;;;;;;5040393;28;20446;-86
2021/08/09 02:08:35;;;;;;;0.50;0.40;;;14.30;99.90;;;;;;5040484;28;20445;-84
2021/08/09 02:11:06;;;;;;;0.60;0.50;;;14.40;99.90;;;;;;5039978;28;20451;-84
2021/08/09 02:13:36;;;;;;;0.50;0.40;;;14.40;99.90;;;;;;5041441;28;20407;-84
2021/08/09 02:16:07;;;;;;;0.80;0.80;;;14.50;99.90;;;;;;5041648;28;20998;-85
2021/08/09 02:18:40;;;;;;;0.80;0.80;;;14.50;99.90;;;;;;5041808;28;20448;-84
2021/08/09 02:21:12;;;;;;;0.50;0.40;;;14.60;99.90;;;;;;5041603;28;20426;-84
2021/08/09 02:23:45;;;;;;;0.50;0.40;;;14.60;99.90;;;;;;5042019;28;20442;-83
2021/08/09 02:26:15;;;;;;;4.23;1.23;;;14.60;99.90;;;;;;5042747;28;20446;-82
2021/08/09 02:28:47;;;;;;;0.50;0.40;;;14.60;99.90;;;;;;5042883;28;20528;-84
2021/08/09 02:31:15;;;;;;;0.50;0.40;;;14.70;99.90;;;;;;5043143;28;20479;-84
2021/08/09 02:33:42;;;;;;;0.50;0.40;;;14.60;99.90;;;;;;5042769;28;20446;-80
2021/08/09 02:36:12;;;;;;;0.50;0.40;;;14.70;99.90;;;;;;5043054;28;20454;-84
2021/08/09 02:38:40;;;;;;;0.50;0.40;;;14.70;99.90;;;;;;5041408;28;20438;-85
2021/08/09 02:41:08;;;;;;;0.50;0.40;;;14.70;99.90;;;;;;5040448;28;20445;-82
2021/08/09 02:43:36;;;;;;;0.50;0.40;;;14.70;99.90;;;;;;5040145;28;20433;-85
2021/08/09 02:46:03;;;;;;;0.70;0.60;;;14.70;99.90;;;;;;5040142;28;20438;-85
2021/08/09 02:48:32;;;;;;;0.50;0.40;;;14.70;99.90;;;;;;5039945;28;20462;-84
2021/08/09 02:50:58;;;;;;;0.50;0.40;;;14.70;99.90;;;;;;5040005;28;20983;-84
2021/08/09 02:53:28;;;;;;;0.50;0.40;;;14.70;99.90;;;;;;5040086;28;20446;-84
2021/08/09 02:55:58;;;;;;;0.50;0.40;;;14.70;99.90;;;;;;5041779;28;20441;-84
2021/08/09 02:58:25;;;;;;;0.50;0.40;;;14.70;99.90;;;;;;5040295;28;20457;-84
2021/08/09 03:00:55;;;;;;;0.50;0.40;;;14.70;99.90;;;;;;5040642;28;20468;-84
2021/08/09 03:03:23;;;;;;;0.50;0.40;;;14.70;99.90;;;;;;5041218;28;20429;-85
2021/08/09 03:05:54;;;;;;;0.50;0.40;;;14.80;99.90;;;;;;5041811;28;20925;-83
2021/08/09 03:08:21;;;;;;;0.50;0.40;;;14.90;99.90;;;;;;5041278;28;20534;-85
2021/08/09 03:10:50;;;;;;;0.50;0.37;;;14.90;99.90;;;;;;5040607;28;20489;-85
2021/08/09 03:13:20;;;;;;;0.50;0.40;;;15.00;99.90;;;;;;5039307;28;20449;-84
2021/08/09 03:15:48;;;;;;;0.60;0.60;;;15.00;99.90;;;;;;5039961;28;20450;-84
2021/08/09 03:18:14;;;;;;;0.50;0.40;;;15.00;99.90;;;;;;5039282;28;20442;-84
2021/08/09 03:20:41;;;;;;;0.50;0.30;;;15.10;99.90;;;;;;5038446;28;20459;-85
2021/08/09 03:23:08;;;;;;;1.53;1.17;;;15.10;99.90;;;;;;5038872;28;20439;-83
2021/08/09 03:25:35;;;;;;;0.50;0.40;;;15.10;99.90;;;;;;5038591;28;20452;-82
2021/08/09 03:28:03;;;;;;;0.50;0.40;;;15.10;99.90;;;;;;5039105;28;20445;-85
2021/08/09 03:30:30;;;;;;;0.50;0.30;;;15.10;99.90;;;;;;5038148;28;20481;-83
2021/08/09 03:32:57;;;;;;;0.50;0.40;;;15.00;99.90;;;;;;5038382;28;20438;-83
2021/08/09 03:35:24;;;;;;;0.50;0.30;;;15.00;99.90;;;;;;5038021;28;20433;-85
2021/08/09 03:37:50;;;;;;;0.50;0.37;;;15.00;99.90;;;;;;5038760;28;20449;-85
2021/08/09 03:40:17;;;;;;;0.50;0.40;;;15.00;99.90;;;;;;5039053;28;20462;-83
2021/08/09 03:42:44;;;;;;;0.50;0.30;;;15.00;99.90;;;;;;5038257;28;21026;-85
2021/08/09 03:45:12;;;;;;;0.50;0.30;;;15.10;99.90;;;;;;5037982;28;20446;-84
2021/08/09 03:47:39;;;;;;;0.50;0.40;;;15.10;99.90;;;;;;5037585;28;20831;-85
2021/08/09 03:50:06;;;;;;;0.60;0.60;;;15.00;99.90;;;;;;5037382;28;20474;-85
2021/08/09 03:52:33;;;;;;;0.50;0.30;;;15.00;99.90;;;;;;5037677;28;20438;-87
2021/08/09 03:55:00;;;;;;;0.50;0.40;;;15.10;99.90;;;;;;5037894;28;20448;-84
2021/08/09 03:57:27;;;;;;;0.50;0.40;;;15.10;99.90;;;;;;5037215;28;20460;-86
2021/08/09 03:59:54;;;;;;;0.50;0.40;;;15.10;99.90;;;;;;5037139;28;20469;-83
2021/08/09 04:02:29;;;;;;;0.50;0.40;;;15.10;99.90;;;;;;5036964;28;20447;-85
2021/08/09 04:04:57;;;;;;;0.50;0.30;;;15.10;99.90;;;;;;5037320;28;20529;-86
2021/08/09 04:07:25;;;;;;;0.50;0.40;;;15.10;99.90;;;;;;5037572;28;21188;-84
2021/08/09 04:09:52;;;;;;;0.50;0.40;;;15.10;99.90;;;;;;5037442;28;20482;-85
2021/08/09 04:12:18;;;;;;;0.50;0.40;;;15.10;99.90;;;;;;5036754;28;20439;-86
2021/08/09 04:14:45;;;;;;;0.50;0.37;;;15.10;99.90;;;;;;5039403;28;20465;-86
2021/08/09 04:17:12;;;;;;;0.50;0.40;;;15.10;99.90;;;;;;5039171;28;20868;-86
2021/08/09 04:19:40;;;;;;;0.50;0.40;;;15.10;99.90;;;;;;5039693;28;20466;-86
2021/08/09 04:22:07;;;;;;;0.50;0.40;;;15.10;99.90;;;;;;5040758;28;20426;-84
2021/08/09 04:24:34;;;;;;;0.50;0.40;;;15.10;99.90;;;;;;5041017;28;20446;-86
2021/08/09 04:27:01;;;;;;;0.50;0.30;;;15.00;99.90;;;;;;5040908;28;20443;-84
2021/08/09 04:29:28;;;;;;;0.50;0.40;;;15.10;99.90;;;;;;5040650;28;20481;-86
2021/08/09 04:31:55;;;;;;;0.50;0.30;;;15.00;99.90;;;;;;5040321;28;20450;-84
2021/08/09 04:34:22;;;;;;;0.50;0.40;;;15.00;99.90;;;;;;5040495;28;20446;-86
2021/08/09 04:36:50;;;;;;;0.50;0.33;;;15.00;99.90;;;;;;5040620;28;20446;-84
2021/08/09 04:39:17;;;;;;;0.50;0.40;;;15.00;99.90;;;;;;5040248;28;20968;-84
2021/08/09 04:41:43;;;;;;;0.50;0.30;;;15.10;99.90;;;;;;5040471;28;20446;-84
2021/08/09 04:44:12;;;;;;;0.50;0.40;;;15.10;99.90;;;;;;5040574;28;20448;-84
2021/08/09 04:46:39;;;;;;;0.50;0.50;;;15.10;99.90;;;;;;5040603;28;20539;-85
2021/08/09 04:49:06;;;;;;;0.50;0.40;;;15.10;99.90;;;;;;5040456;28;20462;-84
2021/08/09 04:51:33;;;;;;;0.50;0.40;;;15.20;99.90;;;;;;5040059;28;20477;-85
2021/08/09 04:54:01;;;;;;;0.50;0.30;;;15.20;99.90;;;;;;5041003;28;20434;-82
2021/08/09 04:56:28;;;;;;;1.60;1.37;;;15.30;99.90;;;;;;5040435;28;20823;-84
2021/08/09 04:58:54;;;;;;;0.50;0.30;;;15.30;99.90;;;;;;5039858;28;20828;-85
2021/08/09 05:01:21;;;;;;;0.50;0.40;;;15.30;99.90;;;;;;5040261;28;20440;-85
2021/08/09 05:03:48;;;;;;;0.50;0.40;;;15.40;99.90;;;;;;5040301;28;20449;-82
2021/08/09 05:06:15;;;;;;;0.53;0.40;;;15.40;99.90;;;;;;5040229;28;20812;-82
2021/08/09 05:08:41;;;;;;;0.50;0.30;;;15.50;99.90;;;;;;5040121;28;20442;-86
2021/08/09 05:11:11;;;;;;;0.50;0.40;;;15.60;99.90;;;;;;5040851;28;20474;-84
2021/08/09 05:13:38;;;;;;;0.50;0.40;;;15.60;99.90;;;;;;5040236;28;20517;-83
2021/08/09 05:16:05;;;;;;;0.50;0.30;;;15.70;99.90;;;;;;5040604;28;20529;-86
2021/08/09 05:18:32;;;;;;;0.50;0.30;;;15.70;99.90;;;;;;5039586;28;20445;-83
2021/08/09 05:20:59;;;;;;;0.50;0.33;;;15.70;99.90;;;;;;5039550;28;20454;-85
2021/08/09 05:23:26;;;;;;;0.50;0.40;;;15.80;99.90;;;;;;5039165;28;20434;-85
2021/08/09 05:25:53;;;;;;;0.70;0.70;;;15.80;99.90;;;;;;5039358;28;20961;-84
2021/08/09 05:28:21;;;;;;;0.50;0.40;;;15.80;99.90;;;;;;5039425;28;20789;-85
2021/08/09 05:30:48;;;;;;;0.50;0.33;;;15.80;99.90;;;;;;5039201;28;20482;-82
2021/08/09 05:33:15;;;;;;;0.50;0.40;;;15.80;99.90;;;;;;5046709;28;20430;-83
2021/08/09 05:35:43;;;;;;;0.60;0.50;;;15.80;99.90;;;;;;5041434;28;20474;-84
2021/08/09 05:38:10;;;;;;;0.50;0.40;;;15.80;99.90;;;;;;5041678;28;20442;-87
2021/08/09 05:40:38;;;;;;;0.50;0.40;;;15.70;99.90;;;;;;5041368;28;20505;-84
2021/08/09 05:43:04;;;;;;;0.80;0.80;;;15.70;99.90;;;;;;5040870;28;20453;-86
2021/08/09 05:45:33;;;;;;;0.50;0.40;;;15.70;99.90;;;;;;5041308;28;20450;-84
2021/08/09 05:47:59;;;;;;;0.50;0.30;;;15.70;99.90;;;;;;5040529;28;20420;-85
2021/08/09 05:50:26;;;;;;;0.50;0.40;;;15.60;99.90;;;;;;5040084;28;20482;-85
2021/08/09 05:52:53;;;;;;;0.50;0.30;;;15.70;99.90;;;;;;5041794;28;20442;-86
2021/08/09 05:55:23;;;;;;;0.50;0.40;;;15.80;99.90;;;;;;5041061;28;20443;-86
2021/08/09 05:57:50;;;;;;;0.50;0.40;;;15.80;99.90;;;;;;5041080;28;20446;-81
2021/08/09 06:00:17;;;;;;;0.50;0.40;;;15.90;99.90;;;;;;5040582;28;20462;-86
2021/08/09 06:02:45;;;;;;;0.50;0.30;;;16.10;99.90;;;;;;5041019;28;20446;-84
2021/08/09 06:05:13;;;;;;;0.50;0.40;;;16.20;99.90;;;;;;5041229;28;20447;-83
2021/08/09 06:07:39;;;;;;;0.50;0.40;;;16.30;99.90;;;;;;5042366;28;20449;-87
2021/08/09 06:10:08;;;;;;;0.50;0.40;;;16.30;99.90;;;;;;5041706;28;20499;-85
2021/08/09 06:12:36;;;;;;;0.50;0.40;;;16.30;99.90;;;;;;5041116;28;20787;-84
2021/08/09 06:15:04;;;;;;;0.50;0.40;;;16.30;99.90;;;;;;5041650;28;20553;-86
2021/08/09 06:17:31;;;;;;;0.50;0.30;;;16.20;99.90;;;;;;5044237;28;20437;-83
2021/08/09 06:19:59;;;;;;;0.50;0.40;;;16.20;99.90;;;;;;5057143;28;20451;-84
2021/08/09 06:22:26;;;;;;;0.50;0.30;;;16.20;99.90;;;;;;5054505;28;20436;-87
2021/08/09 06:24:53;;;;;;;0.50;0.33;;;16.20;99.90;;;;;;5043568;28;20450;-88
2021/08/09 06:27:19;;;;;;;0.87;0.60;;;16.10;99.90;;;;;;5043827;28;20443;-86
2021/08/09 06:29:46;;;;;;;0.50;0.40;;;16.00;99.90;;;;;;5043648;28;20458;-86
2021/08/09 06:32:13;;;;;;;0.50;0.40;;;16.00;99.90;;;;;;5043872;28;20481;-87
2021/08/09 06:34:40;;;;;;;0.50;0.40;;;16.00;99.90;;;;;;5044271;28;20438;-87
2021/08/09 06:37:08;;;;;;;0.50;0.30;;;16.00;99.90;;;;;;5043805;28;20446;-88
2021/08/09 06:39:35;;;;;;;0.50;0.30;;;15.90;99.90;;;;;;5043253;28;20468;-87
2021/08/09 06:42:03;;;;;;;0.50;0.40;;;15.90;99.90;;;;;;5041573;28;20442;-87
2021/08/09 06:44:32;;;;;;;0.50;0.30;;;15.90;99.90;;;;;;5043815;28;20493;-87
2021/08/09 06:46:58;;;;;;;0.50;0.50;;;15.90;99.90;;;;;;5043187;28;20430;-87
2021/08/09 06:49:25;;;;;;;0.50;0.40;;;15.90;99.90;;;;;;5041936;28;20470;-87
2021/08/09 06:51:52;;;;;;;0.50;0.40;;;15.90;99.90;;;;;;5041975;28;20500;-87
2021/08/09 06:54:23;;;;;;;0.50;0.40;;;15.90;99.90;;;;;;5042773;28;20437;-87
2021/08/09 06:56:50;;;;;;;0.50;0.40;;;15.90;99.90;;;;;;5042216;28;20438;-87
2021/08/09 06:59:17;;;;;;;0.50;0.40;;;15.90;99.90;;;;;;5042278;28;20466;-88
2021/08/09 07:01:44;;;;;;;0.50;0.40;;;15.90;99.90;;;;;;5041571;28;20916;-87
2021/08/09 07:04:11;;;;;;;0.50;0.40;;;15.90;99.90;;;;;;5041205;28;20442;-87
2021/08/09 07:06:37;;;;;;;0.50;0.40;;;15.80;99.90;;;;;;5042424;28;20445;-87
2021/08/09 07:09:04;;;;;;;0.50;0.40;;;15.90;99.90;;;;;;5041633;28;20470;-85
2021/08/09 07:11:32;;;;;;;0.50;0.40;;;15.90;99.90;;;;;;5044261;22;20478;-79
2021/08/09 07:13:59;;;;;;;0.50;0.40;;;16.00;99.90;;;;;;5033422;28;20446;-81
2021/08/09 07:16:26;;;;;;;0.50;0.37;;;16.00;99.90;;;;;;5034218;28;20525;-83
2021/08/09 07:18:53;;;;;;;5.03;2.40;;;16.00;99.90;;;;;;5028778;28;20446;-81
2021/08/09 07:21:20;;;;;;;0.50;0.40;;;16.10;99.90;;;;;;5013181;28;20455;-81
2021/08/09 07:23:47;;;;;;;0.50;0.33;;;16.20;99.90;;;;;;5014997;28;20869;-84
2021/08/09 07:26:14;;;;;;;0.70;0.70;;;16.40;99.90;;;;;;5015056;28;20979;-83
2021/08/09 07:28:42;;;;;;;0.50;0.40;;;16.70;99.90;;;;;;5014617;28;20447;-80
2021/08/09 07:31:09;;;;;;;0.50;0.40;;;16.90;99.90;;;;;;5014234;28;20479;-81
2021/08/09 07:33:36;;;;;;;0.50;0.40;;;17.30;99.90;;;;;;5013961;28;20450;-79
2021/08/09 07:36:04;;;;;;;0.50;0.40;;;17.70;99.90;;;;;;5014787;28;20451;-80
2021/08/09 07:38:32;;;;;;;0.50;0.30;;;18.10;99.90;;;;;;5014849;28;20862;-81
2021/08/09 07:40:59;;;;;;;0.50;0.30;;;18.40;99.90;;;;;;5014160;28;20459;-81
2021/08/09 07:43:26;;;;;;;0.50;0.30;;;19.00;99.90;;;;;;5014800;28;20479;-82
2021/08/09 07:45:54;;;;;;;0.50;0.40;;;19.80;99.90;;;;;;5013785;28;20443;-82
2021/08/09 07:48:20;;;;;;;0.80;0.70;;;21.40;99.90;;;;;;5013913;28;20452;-80
2021/08/09 07:50:47;;;;;;;0.60;0.40;;;22.00;99.90;;;;;;5014316;28;20490;-82
2021/08/09 07:53:14;;;;;;;0.50;0.30;;;21.30;99.90;;;;;;5015560;28;20437;-84
2021/08/09 07:55:41;;;;;;;0.50;0.50;;;21.40;99.90;;;;;;5013752;28;20533;-80
2021/08/09 07:58:07;;;;;;;1.07;1.07;;;21.70;99.90;;;;;;5013794;28;20804;-79
2021/08/09 08:00:34;;;;;;;0.50;0.40;;;21.80;99.90;;;;;;5013630;28;20469;-81
2021/08/09 08:03:02;;;;;;;0.50;0.30;;;21.60;99.90;;;;;;5013704;28;20469;-79
2021/08/09 08:05:29;;;;;;;0.50;0.30;;;21.30;99.90;;;;;;5013561;28;20444;-80
2021/08/09 08:07:56;;;;;;;1.17;1.17;;;21.70;99.90;;;;;;5013604;28;20445;-81
2021/08/09 08:10:23;;;;;;;1.07;1.07;;;21.80;99.90;;;;;;5013545;28;20469;-79
2021/08/09 08:12:50;;;;;;;0.50;0.30;;;21.70;99.90;;;;;;5013504;28;20428;-81
2021/08/09 08:15:16;;;;;;;0.60;0.50;;;22.10;99.90;;;;;;5012990;28;20808;-80
2021/08/09 08:17:43;;;;;;;3.57;1.63;;;22.50;99.90;;;;;;5013137;28;20939;-79
2021/08/09 08:20:13;;;;;;;0.50;0.40;;;22.70;99.90;;;;;;5013262;28;20466;-79
2021/08/09 08:22:39;;;;;;;1.13;0.77;;;22.70;99.90;;;;;;5013717;28;20807;-81
2021/08/09 08:25:08;;;;;;;0.50;0.40;;;22.70;99.90;;;;;;5013470;28;20478;-81
2021/08/09 08:27:34;;;;;;;0.50;0.30;;;23.10;99.90;;;;;;5013213;28;20435;-79
2021/08/09 08:30:01;;;;;;;0.50;0.30;;;23.40;99.90;;;;;;5013357;28;20855;-80
2021/08/09 08:32:28;;;;;;;0.70;0.70;;;24.10;99.90;;;;;;5013864;28;20483;-81
2021/08/09 08:34:55;;;;;;;0.60;0.50;;;25.50;99.90;;;;;;5014061;28;20435;-81
2021/08/09 08:37:23;;;;;;;0.50;0.30;;;26.50;99.90;;;;;;5014265;28;20442;-82
2021/08/09 08:39:49;;;;;;;0.50;0.30;;;27.40;97.40;;;;;;5013237;28;20543;-82
2021/08/09 08:42:19;;;;;;;0.50;0.30;;;26.90;96.90;;;;;;5013720;28;20809;-81
2021/08/09 08:44:46;;;;;;;0.50;0.30;;;27.20;97.90;;;;;;5013619;28;20527;-80
2021/08/09 08:47:16;;;;;;;0.50;0.30;;;27.30;94.60;;;;;;5012367;28;20443;-79
2021/08/09 08:49:44;;;;;;;7.13;1.33;;;27.60;94.30;;;;;;5013051;28;20445;-80
2021/08/09 08:52:11;;;;;;;0.93;0.60;;;26.80;94.20;;;;;;5012820;28;20479;-80
2021/08/09 08:54:40;;;;;;;0.50;0.30;;;26.20;96.60;;;;;;5012285;28;20456;-80
2021/08/09 08:57:17;;;;;;;0.50;0.40;;;25.80;99.90;;;;;;5013758;28;20436;-81
2021/08/09 08:59:44;;;;;;;0.50;0.30;;;26.30;98.10;;;;;;5013871;28;20439;-82
2021/08/09 09:02:31;;;;;;;0.50;0.40;;;27.40;95.50;;;;;;5013000;28;20432;-82
2021/08/09 09:05:06;;;;;;;0.50;0.30;;;28.00;92.60;;;;;;5013056;28;20456;-83
2021/08/09 09:07:33;;;;;;;0.50;0.30;;;29.30;90.30;;;;;;5017475;28;20837;-82
2021/08/09 09:10:24;;;;;;;0.50;0.30;;;30.40;78.40;;;;;;5016748;28;20481;-81
2021/08/09 09:13:11;;;;;;;0.50;0.30;;;31.30;74.10;;;;;;5016873;28;20891;-82
2021/08/09 09:15:57;;;;;;;3.77;0.87;;;31.80;70.20;;;;;;5017091;28;20453;-79
2021/08/09 09:18:27;;;;;;;0.50;0.30;;;30.70;69.10;;;;;;5016968;28;20946;-80
2021/08/09 09:20:54;;;;;;;1.20;0.40;;;30.50;71.00;;;;;;5015387;28;21048;-79
2021/08/09 09:23:23;;;;;;;1.47;0.53;;;30.10;69.90;;;;;;5016733;28;20456;-80
2021/08/09 09:25:52;;;;;;;0.83;0.73;;;30.10;70.80;;;;;;5016397;28;20620;-81
2021/08/09 09:28:23;;;;;;;0.50;0.30;;;29.20;71.30;;;;;;5016779;28;20784;-81
2021/08/09 09:30:50;;;;;;;0.50;0.40;;;29.00;73.20;;;;;;5015631;28;20832;-79
2021/08/09 09:33:17;;;;;;;0.50;0.40;;;28.60;72.00;;;;;;5015852;28;20746;-80
2021/08/09 09:35:44;;;;;;;0.50;0.30;;;28.10;73.70;;;;;;5016693;28;20447;-81
2021/08/09 09:38:10;;;;;;;0.50;0.30;;;28.10;75.40;;;;;;5016832;28;20445;-81
2021/08/09 09:40:39;;;;;;;0.50;0.40;;;28.50;76.50;;;;;;5015278;28;20457;-80
2021/08/09 09:43:17;;;;;;;0.57;0.57;;;29.30;71.90;;;;;;5017079;28;20469;-79
2021/08/09 09:45:52;;;;;;;0.50;0.50;;;29.50;71.50;;;;;;5016425;28;20417;-82
2021/08/09 09:48:18;;;;;;;0.50;0.30;;;28.50;72.10;;;;;;5015398;28;20502;-79
2021/08/09 09:50:45;;;;;;;0.50;0.50;;;26.50;77.10;;;;;;5015575;28;20465;-79
2021/08/09 09:53:17;;;;;;;0.60;0.60;;;25.80;82.20;;;;;;5015630;28;20874;-80
2021/08/09 09:55:47;;;;;;;0.50;0.30;;;24.70;89.90;;;;;;5016034;28;20449;-80
2021/08/09 09:58:15;;;;;;;0.50;0.30;;;24.50;99.90;;;;;;5016111;28;20443;-79
2021/08/09 10:00:42;;;;;;;0.50;0.40;;;24.70;99.90;;;;;;5015205;28;20469;-81
2021/08/09 10:03:10;;;;;;;0.60;0.50;;;24.50;99.90;;;;;;5015758;28;20445;-81
2021/08/09 10:05:40;;;;;;;0.80;0.50;;;24.40;99.90;;;;;;5015633;28;20449;-80
2021/08/09 10:08:12;;;;;;;0.50;0.40;;;24.10;99.90;;;;;;5015889;28;20428;-81
2021/08/09 10:10:40;;;;;;;0.50;0.40;;;23.60;99.90;;;;;;5015626;28;20470;-80
2021/08/09 10:13:08;;;;;;;0.50;0.30;;;23.40;99.90;;;;;;5015814;28;20477;-81
2021/08/09 10:15:36;;;;;;;0.50;0.40;;;23.10;99.90;;;;;;5015232;28;20443;-80
2021/08/09 10:18:04;;;;;;;0.50;0.30;;;22.70;99.90;;;;;;5015516;28;20913;-80
2021/08/09 10:20:32;;;;;;;3.33;0.53;;;22.50;99.90;;;;;;5014401;28;20470;-77
2021/08/09 10:23:00;;;;;;;0.70;0.60;;;22.20;99.90;;;;;;5015324;28;20449;-81
2021/08/09 10:25:47;;;;;;;0.50;0.30;;;22.30;99.90;;;;;;5015100;28;20443;-80
2021/08/09 10:28:15;;;;;;;0.60;0.60;;;22.70;99.90;;;;;;5015367;28;20498;-80
2021/08/09 10:30:43;;;;;;;0.50;0.40;;;22.70;99.90;;;;;;5014750;28;20460;-80
2021/08/09 10:33:11;;;;;;;0.50;0.30;;;22.40;99.90;;;;;;5013789;28;20482;-80
2021/08/09 10:36:04;;;;;;;1.03;0.83;;;22.30;99.90;;;;;;5014757;28;20932;-76
2021/08/09 10:38:42;;;;;;;2.53;0.70;;;22.60;99.90;;;;;;5014869;28;20435;-79
2021/08/09 10:41:29;;;;;;;2.50;0.83;;;23.40;99.90;;;;;;5014447;28;20464;-80
2021/08/09 10:44:25;;;;;;;1.17;0.57;;;24.20;99.90;;;;;;5014813;28;20873;-81
2021/08/09 10:46:55;;;;;;;0.50;0.30;;;24.80;99.90;;;;;;5014513;28;20526;-81
2021/08/09 10:49:50;;;;;;;0.50;0.40;;;24.90;99.40;;;;;;5015087;28;20519;-81
2021/08/09 10:52:35;;;;;;;0.50;0.40;;;24.80;98.70;;;;;;5014317;28;20468;-80
2021/08/09 10:55:44;;;;;;;0.70;0.50;;;24.90;95.40;;;;;;5014914;28;20444;-81
2021/08/09 10:58:51;;;;;;;0.73;0.67;;;25.20;95.20;;;;;;4967400;28;20479;-81
2021/08/09 11:01:19;;;;;;;0.80;0.40;;;25.20;93.20;;;;;;5014236;28;20970;-79
2021/08/09 11:04:16;;;;;;;0.50;0.40;;;25.10;94.30;;;;;;5014771;28;20442;-81
2021/08/09 11:06:50;;;;;;;0.50;0.40;;;25.20;96.00;;;;;;5015133;28;20482;-80
2021/08/09 11:09:42;;;;;;;0.50;0.30;;;25.90;94.10;;;;;;5014319;28;20510;-81
2021/08/09 11:12:17;;;;;;;0.60;0.50;;;25.70;92.90;;;;;;5013872;28;20486;-81
2021/08/09 11:15:16;;;;;;;0.50;0.40;;;25.70;91.70;;;;;;5014588;28;20477;-79
2021/08/09 11:17:53;;;;;;;0.50;0.40;;;25.00;91.30;;;;;;5014379;28;20466;-79
2021/08/09 11:20:24;;;;;;;0.50;0.40;;;24.40;94.20;;;;;;5013763;28;20547;-81
2021/08/09 11:23:01;;;;;;;0.50;0.30;;;24.20;98.50;;;;;;5014373;28;20929;-81
2021/08/09 11:25:30;;;;;;;0.67;0.67;;;25.00;95.30;;;;;;5015334;28;20440;-82
2021/08/09 11:27:59;;;;;;;0.50;0.40;;;25.30;92.60;;;;;;5014958;28;20456;-80
2021/08/09 11:30:36;;;;;;;0.80;0.50;;;25.60;91.60;;;;;;5015012;28;20469;-80
2021/08/09 11:33:02;;;;;;;0.60;0.50;;;25.20;90.50;;;;;;5014100;28;20542;-79
2021/08/09 11:35:30;;;;;;;0.50;0.40;;;24.70;90.90;;;;;;5013165;28;20450;-81
2021/08/09 11:37:59;;;;;;;0.60;0.60;;;24.40;91.80;;;;;;5013680;28;20921;-81
2021/08/09 11:40:40;;;;;;;0.50;0.50;;;24.50;91.70;;;;;;5012888;28;20478;-79
2021/08/09 11:43:07;;;;;;;0.50;0.30;;;24.60;91.10;;;;;;5013801;28;20443;-80
2021/08/09 11:45:34;;;;;;;0.87;0.87;;;24.70;91.40;;;;;;5013418;28;20451;-81
2021/08/09 11:48:01;;;;;;;2.20;0.93;;;24.40;91.80;;;;;;5013327;28;20445;-79
2021/08/09 11:50:36;;;;;;;0.50;0.40;;;24.20;92.20;;;;;;5012939;28;20473;-80
2021/08/09 11:53:03;;;;;;;0.60;0.60;;;24.30;94.70;;;;;;5013255;28;20479;-80
2021/08/09 11:55:30;;;;;;;0.50;0.40;;;24.10;91.60;;;;;;5013444;28;20439;-79
2021/08/09 11:57:56;;;;;;;0.50;0.33;;;23.90;94.30;;;;;;5013148;28;20438;-81
2021/08/09 12:00:25;;;;;;;0.50;0.40;;;24.00;96.40;;;;;;5012825;28;20832;-80
2021/08/09 12:03:08;;;;;;;0.50;0.40;;;23.80;95.30;;;;;;5013773;28;20538;-81
2021/08/09 12:05:37;;;;;;;0.50;0.30;;;23.80;96.80;;;;;;5013583;28;20447;-81
2021/08/09 12:08:05;;;;;;;1.17;0.77;;;24.60;97.90;;;;;;5013440;28;20446;-79
2021/08/09 12:10:32;;;;;;;0.70;0.50;;;24.40;93.60;;;;;;5013002;28;20475;-77
2021/08/09 12:12:59;;;;;;;0.60;0.40;;;24.30;94.20;;;;;;5012929;28;20475;-79
2021/08/09 12:15:26;;;;;;;0.50;0.40;;;24.20;94.60;;;;;;5013889;28;20948;-80
2021/08/09 12:18:04;;;;;;;0.70;0.40;;;24.30;99.90;;;;;;5013528;28;20450;-81
2021/08/09 12:20:31;;;;;;;0.50;0.40;;;24.20;98.50;;;;;;5013420;28;20466;-78
2021/08/09 12:22:59;;;;;;;0.60;0.60;;;23.90;99.20;;;;;;5013523;28;20964;-80
2021/08/09 12:25:36;;;;;;;0.50;0.30;;;23.90;99.90;;;;;;5013589;28;20451;-80
2021/08/09 12:28:04;;;;;;;0.60;0.50;;;23.70;99.90;;;;;;5014226;28;20431;-80
2021/08/09 12:30:31;;;;;;;0.50;0.40;;;23.10;99.90;;;;;;5013763;28;20460;-79
2021/08/09 12:33:00;;;;;;;1.23;0.87;;;23.00;99.90;;;;;;5014264;28;21003;-81
2021/08/09 12:35:34;;;;;;;0.50;0.33;;;23.10;99.90;;;;;;5014606;28;20447;-80
2021/08/09 12:38:03;;;;;;;0.60;0.60;;;22.90;99.90;;;;;;5014116;28;20432;-80
2021/08/09 12:40:39;;;;;;;0.50;0.30;;;22.70;99.90;;;;;;5015213;28;20455;-80
2021/08/09 12:43:08;;;;;;;0.90;0.70;;;22.80;99.90;;;;;;5018501;28;20471;-80
2021/08/09 12:45:35;;;;;;;1.00;0.40;;;22.50;99.90;;;;;;5017808;28;20447;-80
2021/08/09 12:48:04;;;;;;;0.50;0.40;;;22.00;99.90;;;;;;5017260;28;20460;-81
2021/08/09 12:50:31;;;;;;;0.50;0.30;;;21.80;99.90;;;;;;5017848;28;20798;-78
2021/08/09 12:52:57;;;;;;;0.50;0.40;;;21.70;99.90;;;;;;5018044;28;20477;-81
2021/08/09 12:55:26;;;;;;;0.83;0.83;;;21.70;99.90;;;;;;5018601;28;20442;-81
2021/08/09 12:57:53;;;;;;;0.50;0.30;;;21.80;99.90;;;;;;5017493;28;20442;-81
2021/08/09 13:00:21;;;;;;;0.50;0.40;;;22.00;99.90;;;;;;5017567;28;20494;-80
2021/08/09 13:02:48;;;;;;;1.70;1.60;;;22.30;99.90;;;;;;5017241;28;20438;-79